createdAt,value
2022-09-25T00:00:57.922Z,97277.09
2022-09-25T00:03:27.530Z,97267.13
2022-09-25T00:06:19.751Z,97270.56
2022-09-25T00:08:46.688Z,97257.47
2022-09-25T00:11:24.003Z,97264.66
2022-09-25T00:13:51.411Z,97266.84
2022-09-25T00:16:24.472Z,97262.81
2022-09-25T00:19:10.156Z,97266.13
2022-09-25T00:21:37.954Z,97263.25
2022-09-25T00:24:08.233Z,97264.38
2022-09-25T00:26:38.618Z,97258.91
2022-09-25T00:29:06.969Z,97251.13
2022-09-25T00:31:34.121Z,97252.44
2022-09-25T00:34:03.289Z,97249.09
2022-09-25T00:36:31.664Z,97248.25
2022-09-25T00:38:58.798Z,97250.41
2022-09-25T00:41:27.744Z,97258.03
2022-09-25T00:43:56.664Z,97250.56
2022-09-25T00:46:34.815Z,97249.09
2022-09-25T00:49:20.514Z,97244.34
2022-09-25T00:51:59.662Z,97243.63
2022-09-25T00:54:31.567Z,97240.16
2022-09-25T00:57:03.025Z,97251.84
2022-09-25T00:59:36.531Z,97251.28
2022-09-25T01:02:03.186Z,97244.34
2022-09-25T01:04:34.667Z,97239.59
2022-09-25T01:07:01.798Z,97241.03
2022-09-25T01:09:28.918Z,97246.38
2022-09-25T01:11:55.745Z,97241.59
2022-09-25T01:14:22.659Z,97240.31
2022-09-25T01:17:21.401Z,97249.38
2022-09-25T01:20:30.435Z,97234.41
2022-09-25T01:23:32.673Z,97237.72
2022-09-25T01:26:31.313Z,97238.59
2022-09-25T01:29:07.136Z,97238.59
2022-09-25T01:32:07.787Z,97237.28
2022-09-25T01:35:04.627Z,97244.34
2022-09-25T01:38:22.070Z,97243.34
2022-09-25T01:41:02.122Z,97239.88
2022-09-25T01:43:37.079Z,97233.13
2022-09-25T01:46:24.778Z,97237.13
2022-09-25T01:49:00.308Z,97236.84
2022-09-25T01:51:32.370Z,97226.34
2022-09-25T01:54:07.540Z,97224.16
2022-09-25T01:56:40.212Z,97226.34
2022-09-25T01:59:12.834Z,97224.31
2022-09-25T02:01:45.126Z,97223.00
2022-09-25T02:04:21.953Z,97223.72
2022-09-25T02:06:51.046Z,97214.97
2022-09-25T02:09:39.278Z,97225.94
2022-09-25T02:12:14.461Z,97215.50
2022-09-25T02:14:49.278Z,97218.84
2022-09-25T02:17:59.307Z,97216.09
2022-09-25T02:20:32.567Z,97221.56
2022-09-25T02:23:17.940Z,97215.66
2022-09-25T02:25:49.862Z,97210.78
2022-09-25T02:28:16.718Z,97211.63
2022-09-25T02:30:47.095Z,97215.09
2022-09-25T02:33:13.737Z,97216.38
2022-09-25T02:35:40.342Z,97215.66
2022-09-25T02:38:07.056Z,97211.63
2022-09-25T02:40:49.781Z,97213.34
2022-09-25T02:43:55.504Z,97203.56
2022-09-25T02:46:57.443Z,97201.84
2022-09-25T02:49:44.866Z,97198.66
2022-09-25T02:52:17.987Z,97209.03
2022-09-25T02:54:51.876Z,97210.63
2022-09-25T02:57:42.552Z,97213.34
2022-09-25T03:00:10.771Z,97206.28
2022-09-25T03:02:39.365Z,97206.00
2022-09-25T03:05:10.219Z,97200.25
2022-09-25T03:07:57.660Z,97201.41
2022-09-25T03:10:25.408Z,97201.28
2022-09-25T03:12:51.985Z,97199.97
2022-09-25T03:15:19.231Z,97203.44
2022-09-25T03:17:48.202Z,97208.19
2022-09-25T03:20:15.100Z,97204.72
2022-09-25T03:22:41.754Z,97201.28
2022-09-25T03:25:08.581Z,97197.78
2022-09-25T03:27:35.183Z,97191.47
2022-09-25T03:30:03.016Z,97186.00
2022-09-25T03:32:29.583Z,97182.38
2022-09-25T03:34:56.363Z,97186.44
2022-09-25T03:37:25.179Z,97180.09
2022-09-25T03:39:51.809Z,97173.72
2022-09-25T03:42:19.532Z,97176.47
2022-09-25T03:44:46.425Z,97184.84
2022-09-25T03:47:13.219Z,97178.06
2022-09-25T03:49:39.973Z,97174.59
2022-09-25T03:52:06.780Z,97171.00
2022-09-25T03:54:33.395Z,97178.50
2022-09-25T03:57:00.004Z,97183.97
2022-09-25T03:59:26.920Z,97175.19
2022-09-25T04:01:54.204Z,97177.06
2022-09-25T04:04:21.204Z,97181.81
2022-09-25T04:06:47.859Z,97186.59
2022-09-25T04:09:14.456Z,97196.06
2022-09-25T04:11:41.233Z,97193.19
2022-09-25T04:14:08.007Z,97187.56
2022-09-25T04:16:34.825Z,97187.13
2022-09-25T04:19:01.462Z,97182.81
2022-09-25T04:21:28.046Z,97177.22
2022-09-25T04:24:13.259Z,97183.84
2022-09-25T04:26:40.151Z,97183.84
2022-09-25T04:29:06.990Z,97177.06
2022-09-25T04:31:33.793Z,97179.22
2022-09-25T04:34:00.438Z,97181.25
2022-09-25T04:36:27.067Z,97179.78
2022-09-25T04:38:53.782Z,97175.63
2022-09-25T04:41:20.453Z,97183.25
2022-09-25T04:43:47.478Z,97187.44
2022-09-25T04:46:20.978Z,97185.69
2022-09-25T04:48:48.426Z,97188.31
2022-09-25T04:51:15.299Z,97183.53
2022-09-25T04:53:42.869Z,97187.16
2022-09-25T04:56:15.376Z,97193.34
2022-09-25T04:58:47.998Z,97196.81
2022-09-25T05:01:16.055Z,97191.16
2022-09-25T05:03:43.084Z,97195.38
2022-09-25T05:06:09.979Z,97195.50
2022-09-25T05:08:36.540Z,97202.41
2022-09-25T05:11:03.934Z,97192.91
2022-09-25T05:13:30.769Z,97187.44
2022-09-25T05:15:58.049Z,97185.25
2022-09-25T05:18:25.544Z,97185.69
2022-09-25T05:20:56.624Z,97192.03
2022-09-25T05:23:24.081Z,97194.78
2022-09-25T05:25:55.296Z,97187.16
2022-09-25T05:28:23.547Z,97186.41
2022-09-25T05:30:50.593Z,97187.28
2022-09-25T05:33:19.027Z,97189.31
2022-09-25T05:35:45.816Z,97197.25
2022-09-25T05:38:12.490Z,97201.41
2022-09-25T05:40:39.287Z,97196.94
2022-09-25T05:43:06.491Z,97188.88
2022-09-25T05:45:34.495Z,97186.88
2022-09-25T05:48:02.847Z,97195.19
2022-09-25T05:50:29.734Z,97184.41
2022-09-25T05:52:57.494Z,97192.63
2022-09-25T05:55:24.869Z,97194.34
2022-09-25T05:57:51.635Z,97200.69
2022-09-25T06:00:18.940Z,97194.06
2022-09-25T06:02:45.981Z,97198.38
2022-09-25T06:05:12.615Z,97191.16
2022-09-25T06:07:39.202Z,97191.75
2022-09-25T06:10:06.482Z,97192.31
2022-09-25T06:12:33.068Z,97192.47
2022-09-25T06:14:59.836Z,97191.00
2022-09-25T06:17:26.556Z,97188.16
2022-09-25T06:19:53.195Z,97191.16
2022-09-25T06:22:19.773Z,97188.84
2022-09-25T06:24:48.669Z,97185.38
2022-09-25T06:27:15.325Z,97180.06
2022-09-25T06:29:41.893Z,97172.25
2022-09-25T06:32:08.507Z,97168.34
2022-09-25T06:34:35.109Z,97168.78
2022-09-25T06:37:01.692Z,97163.91
2022-09-25T06:39:28.411Z,97167.63
2022-09-25T06:41:55.053Z,97172.94
2022-09-25T06:44:22.515Z,97173.66
2022-09-25T06:46:54.506Z,97181.31
2022-09-25T06:49:21.868Z,97188.50
2022-09-25T06:51:50.989Z,97185.78
2022-09-25T06:54:17.997Z,97187.38
2022-09-25T06:56:48.258Z,97191.69
2022-09-25T06:59:14.834Z,97187.09
2022-09-25T07:01:41.534Z,97203.78
2022-09-25T07:04:08.273Z,97200.34
2022-09-25T07:06:37.314Z,97196.56
2022-09-25T07:09:04.097Z,97187.34
2022-09-25T07:11:31.443Z,97190.91
2022-09-25T07:13:58.515Z,97183.09
2022-09-25T07:16:30.093Z,97170.69
2022-09-25T07:19:00.568Z,97172.97
2022-09-25T07:21:30.517Z,97168.50
2022-09-25T07:23:58.294Z,97180.38
2022-09-25T07:26:28.758Z,97176.31
2022-09-25T07:29:04.121Z,97175.88
2022-09-25T07:31:33.151Z,97180.00
2022-09-25T07:34:05.794Z,97183.03
2022-09-25T07:36:33.045Z,97168.81
2022-09-25T07:38:59.790Z,97179.59
2022-09-25T07:41:27.015Z,97174.28
2022-09-25T07:46:46.129Z,97167.88
2022-09-25T07:49:13.610Z,97164.59
2022-09-25T07:51:40.367Z,97161.97
2022-09-25T07:54:07.301Z,97156.00
2022-09-25T07:56:38.387Z,97157.56
2022-09-25T07:59:05.418Z,97158.09
2022-09-25T08:01:32.284Z,97167.38
2022-09-25T08:03:59.302Z,97170.13
2022-09-25T08:06:25.952Z,97172.78
2022-09-25T08:08:52.525Z,97175.16
2022-09-25T08:11:19.475Z,97176.03
2022-09-25T08:13:46.721Z,97178.31
2022-09-25T08:16:16.180Z,97181.19
2022-09-25T08:18:48.392Z,97178.22
2022-09-25T08:21:17.847Z,97181.69
2022-09-25T08:23:49.447Z,97184.81
2022-09-25T08:26:16.782Z,97186.09
2022-09-25T08:28:44.160Z,97186.72
2022-09-25T08:31:11.173Z,97177.75
2022-09-25T08:33:37.957Z,97175.88
2022-09-25T08:36:08.597Z,97175.78
2022-09-25T08:38:35.755Z,97168.63
2022-09-25T08:41:11.381Z,97171.50
2022-09-25T08:43:43.565Z,97173.06
2022-09-25T08:46:42.722Z,97172.13
2022-09-25T08:49:12.294Z,97173.69
2022-09-25T08:51:49.115Z,97175.63
2022-09-25T08:54:27.855Z,97174.06
2022-09-25T08:56:59.239Z,97173.44
2022-09-25T08:59:31.865Z,97171.63
2022-09-25T09:02:11.592Z,97155.69
2022-09-25T09:04:51.836Z,97149.22
2022-09-25T09:07:35.671Z,97137.38
2022-09-25T09:10:41.270Z,97138.69
2022-09-25T09:13:37.650Z,97132.47
2022-09-25T09:16:10.501Z,97134.03
2022-09-25T09:18:42.973Z,97128.75
2022-09-25T09:21:13.496Z,97133.63
2022-09-25T09:24:06.951Z,97129.06
2022-09-25T09:26:50.093Z,97133.38
2022-09-25T09:30:00.291Z,97136.06
2022-09-25T09:33:02.030Z,97135.22
2022-09-25T09:36:13.587Z,97144.47
2022-09-25T09:39:07.494Z,97145.47
2022-09-25T09:42:02.242Z,97141.94
2022-09-25T09:45:16.326Z,97135.50
2022-09-25T09:48:01.850Z,97127.94
2022-09-25T09:50:52.816Z,97122.97
2022-09-25T09:53:46.451Z,97124.59
2022-09-25T09:56:27.609Z,97129.53
2022-09-25T09:59:00.718Z,97124.44
2022-09-25T10:01:42.021Z,97121.91
2022-09-25T10:04:23.067Z,97131.09
2022-09-25T10:07:05.042Z,97116.69
2022-09-25T10:09:32.260Z,97114.22
2022-09-25T10:12:08.026Z,97113.06
2022-09-25T10:14:41.093Z,97113.69
2022-09-25T10:17:11.465Z,97104.06
2022-09-25T10:19:48.177Z,97100.72
2022-09-25T10:22:21.411Z,97107.03
2022-09-25T10:24:58.536Z,97102.53
2022-09-25T10:27:48.984Z,97097.06
2022-09-25T10:30:20.319Z,97086.94
2022-09-25T10:33:00.875Z,97079.69
2022-09-25T10:35:51.103Z,97079.69
2022-09-25T10:38:45.238Z,97078.47
2022-09-25T10:41:13.751Z,97079.59
2022-09-25T10:44:00.197Z,97067.94
2022-09-25T10:46:53.591Z,97071.72
2022-09-25T10:49:46.993Z,97076.00
2022-09-25T10:52:16.273Z,97068.66
2022-09-25T10:54:45.572Z,97073.66
2022-09-25T10:57:35.318Z,97078.06
2022-09-25T11:00:07.501Z,97074.81
2022-09-25T11:02:40.173Z,97075.91
2022-09-25T11:05:15.700Z,97074.28
2022-09-25T11:07:52.424Z,97075.50
2022-09-25T11:10:21.667Z,97076.72
2022-09-25T11:12:48.483Z,97074.09
2022-09-25T11:15:20.949Z,97064.88
2022-09-25T11:17:52.216Z,97066.09
2022-09-25T11:20:30.692Z,97060.66
2022-09-25T11:23:20.764Z,97056.69
2022-09-25T11:26:17.711Z,97053.59
2022-09-25T11:29:27.030Z,97055.13
2022-09-25T11:32:06.496Z,97051.28
2022-09-25T11:35:14.627Z,97046.84
2022-09-25T11:38:02.542Z,97041.63
2022-09-25T11:41:12.306Z,97041.69
2022-09-25T11:44:08.476Z,97036.69
2022-09-25T11:46:57.283Z,97041.69
2022-09-25T11:49:27.957Z,97042.53
2022-09-25T11:52:33.527Z,97040.47
2022-09-25T11:55:28.819Z,97039.13
2022-09-25T12:01:40.530Z,97028.94
2022-09-25T12:04:46.623Z,97029.97
2022-09-25T12:07:32.599Z,97031.09
2022-09-25T12:10:51.587Z,97027.72
2022-09-25T12:13:32.237Z,97027.44
2022-09-25T12:16:23.303Z,97022.53
2022-09-25T12:19:29.603Z,97017.41
2022-09-25T12:22:38.185Z,97018.38
2022-09-25T12:25:27.355Z,97024.09
2022-09-25T12:28:01.196Z,97008.47
2022-09-25T12:30:57.163Z,97004.72
2022-09-25T12:33:32.509Z,96997.44
2022-09-25T12:36:15.127Z,96993.88
2022-09-25T12:38:56.130Z,96991.19
2022-09-25T12:41:30.507Z,96998.69
2022-09-25T12:44:35.763Z,97000.81
2022-09-25T12:47:37.591Z,96998.34
2022-09-25T12:50:13.334Z,97000.28
2022-09-25T12:53:09.418Z,96994.16
2022-09-25T12:55:42.376Z,96996.28
2022-09-25T12:58:24.432Z,96994.59
2022-09-25T13:01:03.982Z,96999.31
2022-09-25T13:04:23.097Z,96997.72
2022-09-25T13:07:04.041Z,96982.19
2022-09-25T13:09:46.148Z,96969.53
2022-09-25T13:12:36.940Z,96975.84
2022-09-25T13:15:35.317Z,96978.72
2022-09-25T13:18:04.357Z,96973.38
2022-09-25T13:20:57.979Z,96968.19
2022-09-25T13:23:40.657Z,96969.09
2022-09-25T13:26:16.840Z,96976.22
2022-09-25T13:28:55.178Z,96967.66
2022-09-25T13:31:28.547Z,96960.72
2022-09-25T13:34:12.382Z,96960.91
2022-09-25T13:36:46.427Z,96942.97
2022-09-25T13:39:46.590Z,96936.38
2022-09-25T13:42:44.050Z,96946.44
2022-09-25T13:45:32.557Z,96952.88
2022-09-25T13:48:12.630Z,96958.75
2022-09-25T13:50:45.293Z,96950.63
2022-09-25T13:53:21.127Z,96945.47
2022-09-25T13:56:13.771Z,96948.41
2022-09-25T13:59:00.758Z,96945.00
2022-09-25T14:01:40.200Z,96942.44
2022-09-25T14:04:36.253Z,96945.19
2022-09-25T14:07:19.551Z,96946.72
2022-09-25T14:09:53.865Z,96942.34
2022-09-25T14:12:46.114Z,96934.69
2022-09-25T14:15:35.520Z,96939.16
2022-09-25T14:18:08.391Z,96938.53
2022-09-25T14:20:40.611Z,96938.94
2022-09-25T14:23:20.754Z,96934.59
2022-09-25T14:25:47.984Z,96932.78
2022-09-25T14:28:30.137Z,96925.84
2022-09-25T14:31:22.437Z,96923.25
2022-09-25T14:34:17.566Z,96917.63
2022-09-25T14:37:26.637Z,96917.63
2022-09-25T14:40:33.446Z,96909.00
2022-09-25T14:43:49.674Z,96906.03
2022-09-25T14:46:20.192Z,96911.69
2022-09-25T14:48:59.071Z,96910.00
2022-09-25T14:51:41.559Z,96909.88
2022-09-25T14:54:09.633Z,96908.47
2022-09-25T14:56:37.517Z,96903.56
2022-09-25T14:59:15.884Z,96904.72
2022-09-25T15:01:49.511Z,96901.88
2022-09-25T15:04:45.740Z,96899.00
2022-09-25T15:07:19.503Z,96901.75
2022-09-25T15:09:48.532Z,96892.84
2022-09-25T15:12:26.936Z,96888.59
2022-09-25T15:15:14.942Z,96884.91
2022-09-25T15:17:54.729Z,96874.84
2022-09-25T15:20:24.024Z,96878.34
2022-09-25T15:22:57.115Z,96890.44
2022-09-25T15:25:39.524Z,96897.50
2022-09-25T15:28:08.513Z,96899.34
2022-09-25T15:30:37.618Z,96894.25
2022-09-25T15:33:04.556Z,96907.81
2022-09-25T15:35:31.249Z,96902.22
2022-09-25T15:38:12.907Z,96901.41
2022-09-25T15:40:41.389Z,96892.44
2022-09-25T15:43:13.948Z,96893.47
2022-09-25T15:45:57.814Z,96895.31
2022-09-25T15:48:36.974Z,96893.84
2022-09-25T15:51:14.202Z,96898.56
2022-09-25T15:53:44.274Z,96897.03
2022-09-25T15:56:33.900Z,96897.53
2022-09-25T15:59:14.429Z,96899.97
2022-09-25T16:02:00.547Z,96903.22
2022-09-25T16:04:46.336Z,96908.53
2022-09-25T16:07:31.725Z,96918.63
2022-09-25T16:10:03.311Z,96910.38
2022-09-25T16:12:36.056Z,96913.84
2022-09-25T16:15:40.551Z,96914.94
2022-09-25T16:18:32.421Z,96905.97
2022-09-25T16:21:24.005Z,96906.69
2022-09-25T16:23:56.293Z,96900.06
2022-09-25T16:26:25.628Z,96907.28
2022-09-25T16:29:08.435Z,96905.75
2022-09-25T16:31:36.529Z,96912.50
2022-09-25T16:34:04.693Z,96911.53
2022-09-25T16:36:42.942Z,96910.00
2022-09-25T16:39:24.701Z,96910.50
2022-09-25T16:41:51.817Z,96922.13
2022-09-25T16:44:34.879Z,96925.59
2022-09-25T16:47:21.227Z,96915.50
2022-09-25T16:49:49.398Z,96910.16
2022-09-25T16:52:20.858Z,96899.72
2022-09-25T16:54:53.136Z,96905.28
2022-09-25T16:57:29.630Z,96911.28
2022-09-25T16:59:56.431Z,96923.50
2022-09-25T17:02:38.502Z,96932.34
2022-09-25T17:05:20.923Z,96932.81
2022-09-25T17:07:49.878Z,96940.97
2022-09-25T17:10:23.881Z,96938.09
2022-09-25T17:12:53.919Z,96946.25
2022-09-25T17:15:27.504Z,96950.28
2022-09-25T17:17:55.193Z,96941.81
2022-09-25T17:20:24.356Z,96951.53
2022-09-25T17:22:54.591Z,96945.88
2022-09-25T17:25:29.704Z,96944.97
2022-09-25T17:27:57.606Z,96945.66
2022-09-25T17:30:24.136Z,96946.25
2022-09-25T17:32:51.485Z,96942.69
2022-09-25T17:35:35.019Z,96937.06
2022-09-25T17:38:01.802Z,96940.53
2022-09-25T17:40:30.494Z,96933.63
2022-09-25T17:42:57.383Z,96934.59
2022-09-25T17:45:35.822Z,96939.25
2022-09-25T17:48:02.979Z,96948.81
2022-09-25T17:50:31.485Z,96944.41
2022-09-25T17:52:59.090Z,96949.78
2022-09-25T17:55:25.798Z,96944.19
2022-09-25T17:57:52.381Z,96945.50
2022-09-25T18:00:19.213Z,96939.91
2022-09-25T18:02:45.966Z,96949.91
2022-09-25T18:05:18.322Z,96956.16
2022-09-25T18:07:45.154Z,96956.63
2022-09-25T18:10:14.128Z,96964.16
2022-09-25T18:12:41.191Z,96954.47
2022-09-25T18:15:10.350Z,96962.00
2022-09-25T18:17:37.114Z,96966.88
2022-09-25T18:20:23.089Z,96962.63
2022-09-25T18:22:49.696Z,96972.28
2022-09-25T18:25:16.713Z,96975.63
2022-09-25T18:27:44.045Z,96970.72
2022-09-25T18:30:18.644Z,96976.09
2022-09-25T18:32:45.420Z,96982.81
2022-09-25T18:35:14.255Z,96987.00
2022-09-25T18:37:40.887Z,96993.19
2022-09-25T18:40:08.718Z,96989.13
2022-09-25T18:42:35.502Z,96986.38
2022-09-25T18:45:02.102Z,96983.03
2022-09-25T18:47:28.949Z,96981.72
2022-09-25T18:49:55.599Z,96983.75
2022-09-25T18:52:22.540Z,96979.09
2022-09-25T18:54:49.289Z,96981.84
2022-09-25T18:57:16.350Z,96976.34
2022-09-25T18:59:43.183Z,96981.00
2022-09-25T19:02:29.705Z,96982.44
2022-09-25T19:04:58.077Z,96996.41
2022-09-25T19:07:27.158Z,96982.66
2022-09-25T19:09:54.225Z,96991.63
2022-09-25T19:12:21.408Z,96989.50
2022-09-25T19:14:48.458Z,96989.25
2022-09-25T19:17:16.043Z,96981.50
2022-09-25T19:19:43.971Z,96976.00
2022-09-25T19:22:20.757Z,96979.69
2022-09-25T19:24:48.509Z,96978.28
2022-09-25T19:27:17.376Z,96980.53
2022-09-25T19:29:47.491Z,96974.94
2022-09-25T19:32:16.076Z,96970.97
2022-09-25T19:34:43.581Z,96973.09
2022-09-25T19:37:10.692Z,96972.16
2022-09-25T19:39:56.397Z,96985.63
2022-09-25T19:42:27.131Z,96982.28
2022-09-25T19:44:56.446Z,96994.25
2022-09-25T19:47:23.641Z,96988.88
2022-09-25T19:49:50.222Z,96992.78
2022-09-25T19:52:22.383Z,96994.50
2022-09-25T19:54:49.047Z,96997.47
2022-09-25T19:57:15.712Z,96994.97
2022-09-25T19:59:42.340Z,96999.50
2022-09-25T20:02:09.929Z,97007.84
2022-09-25T20:04:36.771Z,97011.81
2022-09-25T20:07:03.593Z,97010.50
2022-09-25T20:09:30.441Z,97007.00
2022-09-25T20:11:57.012Z,97011.41
2022-09-25T20:14:25.617Z,97006.94
2022-09-25T20:16:53.993Z,97008.13
2022-09-25T20:19:21.679Z,97019.72
2022-09-25T20:21:48.777Z,97019.47
2022-09-25T20:24:15.608Z,97024.94
2022-09-25T20:26:42.226Z,97020.09
2022-09-25T20:29:12.218Z,97028.53
2022-09-25T20:31:41.326Z,97036.59
2022-09-25T20:34:11.649Z,97037.22
2022-09-25T20:36:39.130Z,97038.94
2022-09-25T20:39:06.264Z,97043.44
2022-09-25T20:41:33.403Z,97050.81
2022-09-25T20:44:03.690Z,97049.97
2022-09-25T20:46:32.272Z,97050.47
2022-09-25T20:48:59.865Z,97050.38
2022-09-25T20:51:31.861Z,97047.75
2022-09-25T20:54:00.699Z,97048.03
2022-09-25T20:56:29.218Z,97050.31
2022-09-25T20:58:57.348Z,97043.50
2022-09-25T21:01:36.490Z,97051.38
2022-09-25T21:04:05.859Z,97052.38
2022-09-25T21:06:34.207Z,97044.41
2022-09-25T21:09:03.489Z,97048.59
2022-09-25T21:11:32.339Z,97046.94
2022-09-25T21:14:02.513Z,97044.91
2022-09-25T21:16:30.820Z,97040.75
2022-09-25T21:19:04.201Z,97045.78
2022-09-25T21:21:32.166Z,97049.72
2022-09-25T21:23:59.457Z,97049.03
2022-09-25T21:26:28.240Z,97050.34
2022-09-25T21:28:57.353Z,97052.00
2022-09-25T21:31:27.522Z,97057.25
2022-09-25T21:33:56.062Z,97055.09
2022-09-25T21:36:23.648Z,97049.63
2022-09-25T21:38:50.561Z,97045.16
2022-09-25T21:41:19.661Z,97047.19
2022-09-25T21:43:46.934Z,97047.66
2022-09-25T21:46:18.719Z,97037.28
2022-09-25T21:48:51.107Z,97038.00
2022-09-25T21:51:19.698Z,97033.22
2022-09-25T21:53:46.800Z,97032.06
2022-09-25T21:56:17.222Z,97022.97
2022-09-25T21:58:45.066Z,97022.38
2022-09-25T22:01:36.080Z,97022.97
2022-09-25T22:04:04.378Z,97018.78
2022-09-25T22:06:37.348Z,97017.22
2022-09-25T22:09:10.335Z,97015.06
2022-09-25T22:11:38.052Z,97017.81
2022-09-25T22:14:05.896Z,97015.91
2022-09-25T22:16:35.831Z,97013.78
2022-09-25T22:19:12.536Z,97008.88
2022-09-25T22:21:40.530Z,97011.75
2022-09-25T22:24:07.835Z,97006.25
2022-09-25T22:26:37.373Z,97008.75
2022-09-25T22:29:04.225Z,97013.84
2022-09-25T22:31:32.844Z,97004.28
2022-09-25T22:34:02.218Z,97001.81
2022-09-25T22:36:29.037Z,96999.56
2022-09-25T22:38:56.387Z,96994.88
2022-09-25T22:41:22.974Z,97004.69
2022-09-25T22:43:51.619Z,97000.63
2022-09-25T22:46:18.873Z,97003.97
2022-09-25T22:48:45.499Z,96994.44
2022-09-25T22:51:14.896Z,97001.34
2022-09-25T22:53:42.833Z,97002.66
2022-09-25T22:56:12.462Z,96993.25
2022-09-25T22:58:39.497Z,96993.25
2022-09-25T23:01:14.815Z,97006.97
2022-09-25T23:03:41.430Z,97002.53
2022-09-25T23:06:08.489Z,97010.13
2022-09-25T23:08:35.238Z,97002.94
2022-09-25T23:11:07.512Z,97006.16
2022-09-25T23:13:35.315Z,97003.53
2022-09-25T23:16:07.395Z,97004.50
2022-09-25T23:18:35.979Z,97010.84
2022-09-25T23:21:03.189Z,97006.31
2022-09-25T23:23:29.758Z,97004.50
2022-09-25T23:26:01.879Z,97004.84
2022-09-25T23:28:28.466Z,97000.09
2022-09-25T23:30:55.306Z,96988.25
2022-09-25T23:33:21.922Z,96999.22
2022-09-25T23:35:48.466Z,97005.88
2022-09-25T23:38:15.254Z,97002.31
2022-09-25T23:40:41.893Z,96991.00
2022-09-25T23:43:08.676Z,96990.53
2022-09-25T23:45:35.302Z,96997.19
2022-09-25T23:48:02.410Z,96993.28
2022-09-25T23:50:29.298Z,96988.91
2022-09-25T23:52:56.027Z,96987.81
2022-09-25T23:55:22.775Z,96993.88
2022-09-25T23:57:49.315Z,96991.97
